x

Isle Of Shoals, Nh (iosn3) Weather Station

6:00pm - Mon 26th Jan 2015 All times are EST. -5 hours from GMT.

  • Wind
    29mph, 34mph gusts
  • 空気 Temp 26°f
  • Sea Pressure 1017.6mb
  • Isle Of Shoals, Nh
  • Isle Of Shoals, Nh

More Historic Weather Station data

Upgrade to MSW Pro to gain access to the past 30 days of data for over 8000 Wavebouys and Weather Stations around the globe.

Join Pro

Comparision Forecast

View Surf forecast
   
Mon 01/26 6:00pm 29 34 mph 1017.6mb 26f
5:00pm 32 38 mph 1017.7mb 25f
4:00pm 26 29 mph 1017.8mb 25f
3:00pm 25 28 mph 1017.9mb 24f
2:00pm 22 24 mph 1018.1mb 24f
1:00pm 20 22 mph 1018.8mb 23f
12:00pm 20 24 mph 1019.6mb 21f
11:00am 18 22 mph 1020.7mb 19f
10:00am 18 21 mph 1021.2mb 17f
9:00am 18 21 mph 1020.8mb 16f
8:00am 16 20 mph 1020.6mb 14f
7:00am 11 13 mph 1020.7mb 15f
6:00am 13 15 mph 1019.8mb 14f
5:00am 11 15 mph 1019.3mb 13f
4:00am 11 14 mph 1018.9mb 13f
3:00am 16 17 mph 1018.1mb 13f
2:00am 20 23 mph 1017.6mb 14f
1:00am 22 24 mph 1017.4mb 15f
12:00am 23 26 mph 1016.2mb 16f
Sun 01/25 11:00pm 24 28 mph 1015.7mb 17f
10:00pm 25 28 mph 1014.4mb 19f
9:00pm 29 32 mph 1012.8mb 21f
8:00pm 31 38 mph 1011.3mb 23f
7:00pm 28 33 mph 1010.1mb 25f
6:00pm 29 32 mph 1009mb 26f
5:00pm 29 32 mph 1007.2mb 28f
4:00pm 31 36 mph 1005.3mb 30f
3:00pm 28 30 mph 1004mb 31f
2:00pm 24 29 mph 1002.7mb 31f
1:00pm 26 31 mph 1001.5mb 32f
12:00pm 33 36 mph 1000.6mb 32f
11:00am 30 33 mph 999.9mb 34f
10:00am 29 31 mph 997.9mb 36f
9:00am 26 30 mph 997.1mb 35f
8:00am 28 31 mph 996.5mb 34f
7:00am 25 29 mph 995.7mb 33f
6:00am 25 28 mph 994.8mb 33f
5:00am 29 33 mph 993.7mb 34f
4:00am 32 34 mph 992mb 34f
3:00am 28 31 mph 991.5mb 33f
2:00am 25 30 mph 990.4mb 33f
1:00am 30 36 mph 988.8mb 33f
12:00am 28 33 mph 988.5mb 32f
Sat 01/24 11:00pm 20 23 mph 988.5mb 30f
10:00pm 15 17 mph 988.4mb 30f
9:00pm 23 25 mph 987.7mb 30f
8:00pm 25 29 mph 987.3mb 29f
7:00pm 30 31 mph 987.8mb 30f
6:00pm 25 26 mph 987.3mb 31f
5:00pm 30 32 mph 986.6mb 32f
4:00pm 29 32 mph 989.1mb 32f
3:00pm 24 26 mph 992.3mb 32f
2:00pm 24 28 mph 992.8mb 32f
1:00pm 22 24 mph 995.3mb 32f
12:00pm 16 17 mph 997.8mb 32f
11:00am 11
mph
1001mb 32f
10:00am 13 14 mph 1002.3mb 32f
9:00am 9 10 mph 1004.1mb 32f
8:00am 10 11 mph 1006.1mb 32f
7:00am 20 22 mph 1007mb 34f
6:00am 25 28 mph 1007.3mb 34f
5:00am 21 22 mph 1007.4mb 33f
4:00am 20 21 mph 1008.2mb 33f
3:00am 18 20 mph 1009mb 33f
2:00am 21 22 mph 1010.4mb 33f
1:00am 18 21 mph 1011.2mb 33f
12:00am 20 21 mph 1011.5mb 32f
Fri 01/23 11:00pm 23 25 mph 1012.8mb 33f
10:00pm 22 24 mph 1012.9mb 33f
9:00pm 24 26 mph 1013.9mb 34f
8:00pm 21 23 mph 1014.9mb 35f
7:00pm 20 22 mph 1015.3mb 34f
6:00pm 22 25 mph 1015.8mb 34f
5:00pm 18 21 mph 1016.2mb 34f
4:00pm 20 23 mph 1016.7mb 34f
3:00pm 11 13 mph 1017.5mb 33f
2:00pm 10 11 mph 1018.3mb 32f
1:00pm 17 22 mph 1019.2mb 31f
12:00pm 17 22 mph 1020.6mb 29f
11:00am 13 15 mph 1022mb 28f
10:00am 16 20 mph 1022.7mb 26f
9:00am 17 21 mph 1022.9mb 24f
8:00am 21 23 mph 1023.1mb 24f
7:00am 18 21 mph 1023.2mb 24f
6:00am 18 22 mph 1023mb 24f
5:00am 16 20 mph 1022.9mb 25f
4:00am 18 21 mph 1022.6mb 26f
3:00am 17 21 mph 1022.4mb 27f
2:00am 17 18 mph 1022.2mb 28f
1:00am 24 28 mph 1021.1mb 29f